Time;durP1;ratioP1;P1;durP2;ratioP2;P2;SDS_P1;SDS_P2;PMS_P1;PMS_P2;Temp;Humidity;BMP_temperature;BMP_pressure;BME280_temperature;BME280_humidity;BME280_pressure;Samples;Min_cycle;Max_cycle;Signal;HPM_P1;HPM_P2
2023/09/30 00:01:32;;;;;;;;;;;12.00;99.90;;;;;;5015678;28;19925;-33
2023/09/30 00:03:59;;;;;;;;;;;12.00;99.90;;;;;;5014496;28;19929;-32
2023/09/30 00:06:26;;;;;;;;;;;12.00;99.90;;;;;;4997350;28;19936;-32
2023/09/30 00:08:53;;;;;;;;;;;12.00;99.90;;;;;;4997317;28;19972;-33
2023/09/30 00:11:20;;;;;;;;;;;12.00;99.90;;;;;;4998296;28;20015;-32
2023/09/30 00:13:49;;;;;;;;;;;12.00;99.90;;;;;;4998097;28;19929;-32
2023/09/30 00:16:17;;;;;;;;;;;12.00;99.90;;;;;;4996165;28;19940;-33
2023/09/30 00:18:46;;;;;;;;;;;12.10;99.90;;;;;;5014788;28;20328;-32
2023/09/30 00:21:12;;;;;;;;;;;12.00;99.90;;;;;;4996531;28;19947;-32
2023/09/30 00:23:39;;;;;;;;;;;12.00;99.90;;;;;;4996421;28;19933;-32
2023/09/30 00:26:06;;;;;;;;;;;12.00;99.90;;;;;;5014816;28;19929;-32
2023/09/30 00:28:32;;;;;;;;;;;12.00;99.90;;;;;;4990674;28;19972;-31
2023/09/30 00:30:59;;;;;;;;;;;12.00;99.90;;;;;;4994562;28;19989;-32
2023/09/30 00:33:26;;;;;;;;;;;12.00;99.90;;;;;;5014788;28;19929;-32
2023/09/30 00:35:54;;;;;;;;;;;12.00;99.90;;;;;;4997115;28;20016;-32
2023/09/30 00:38:23;;;;;;;;;;;12.00;99.90;;;;;;4989967;28;20054;-31
2023/09/30 00:40:50;;;;;;;;;;;12.10;99.90;;;;;;5014135;28;20162;-31
2023/09/30 00:43:20;;;;;;;;;;;12.10;99.90;;;;;;5015054;28;20408;-31
2023/09/30 00:45:47;;;;;;;;;;;12.10;99.90;;;;;;4997140;28;19976;-32
2023/09/30 00:48:13;;;;;;;;;;;12.10;99.90;;;;;;4991671;28;20371;-31
2023/09/30 00:50:40;;;;;;;;;;;12.10;99.90;;;;;;4987618;28;19964;-32
2023/09/30 00:53:10;;;;;;;;;;;12.10;99.90;;;;;;4996648;28;20008;-32
2023/09/30 00:55:36;;;;;;;;;;;12.10;99.90;;;;;;5013191;28;20008;-32
2023/09/30 00:58:03;;;;;;;;;;;12.10;99.90;;;;;;4996349;28;20289;-32
2023/09/30 01:00:31;;;;;;;;;;;12.10;99.90;;;;;;5014428;28;19926;-31
2023/09/30 01:02:59;;;;;;;;;;;12.10;99.90;;;;;;5014531;28;20368;-33
2023/09/30 01:05:26;;;;;;;;;;;12.00;99.90;;;;;;5012514;28;19979;-32
2023/09/30 01:07:52;;;;;;;;;;;12.00;99.90;;;;;;5012536;28;20404;-32
2023/09/30 01:10:20;;;;;;;;;;;12.00;99.90;;;;;;4997299;28;20302;-32
2023/09/30 01:12:47;;;;;;;;;;;12.00;99.90;;;;;;5013877;28;19933;-32
2023/09/30 01:15:14;;;;;;;;;;;12.10;99.90;;;;;;5013436;28;20350;-34
2023/09/30 01:17:41;;;;;;;;;;;12.10;99.90;;;;;;5014321;28;19933;-31
2023/09/30 01:20:09;;;;;;;;;;;12.10;99.90;;;;;;4996254;28;19937;-32
2023/09/30 01:22:37;;;;;;;;;;;12.10;99.90;;;;;;5012903;28;19926;-32
2023/09/30 01:25:03;;;;;;;;;;;12.10;99.90;;;;;;4996728;28;20432;-32
2023/09/30 01:27:30;;;;;;;;;;;12.10;99.90;;;;;;4986873;28;20405;-32
2023/09/30 01:29:58;;;;;;;;;;;12.10;99.90;;;;;;4994465;28;20488;-32
2023/09/30 01:32:24;;;;;;;;;;;12.10;99.90;;;;;;4984140;28;19956;-31
2023/09/30 01:34:51;;;;;;;;;;;12.10;99.90;;;;;;4996065;28;19925;-31
2023/09/30 01:37:17;;;;;;;;;;;12.20;99.90;;;;;;5013660;28;19930;-31
2023/09/30 01:39:46;;;;;;;;;;;12.10;99.90;;;;;;5013989;28;19925;-33
2023/09/30 01:42:12;;;;;;;;;;;12.20;99.90;;;;;;4995290;28;19929;-31
2023/09/30 01:44:39;;;;;;;;;;;12.10;99.90;;;;;;5013148;28;19940;-31
2023/09/30 01:47:05;;;;;;;;;;;12.10;99.90;;;;;;4991234;28;19984;-32
2023/09/30 01:49:32;;;;;;;;;;;12.20;99.90;;;;;;5005310;28;19926;-32
2023/09/30 01:51:59;;;;;;;;;;;12.20;99.90;;;;;;4992424;28;19988;-31
2023/09/30 01:54:25;;;;;;;;;;;12.10;99.90;;;;;;4994545;28;19977;-32
2023/09/30 01:56:53;;;;;;;;;;;12.20;99.90;;;;;;4996462;28;19925;-32
2023/09/30 01:59:21;;;;;;;;;;;12.10;99.90;;;;;;4995429;28;19956;-31
2023/09/30 02:01:47;;;;;;;;;;;12.10;99.90;;;;;;4995683;28;19933;-32
2023/09/30 02:04:15;;;;;;;;;;;12.10;99.90;;;;;;4995732;28;19926;-32
2023/09/30 02:06:41;;;;;;;;;;;12.10;99.90;;;;;;4994792;28;20340;-32
2023/09/30 02:09:08;;;;;;;;;;;12.10;99.90;;;;;;4994673;28;20389;-31
2023/09/30 02:11:35;;;;;;;;;;;12.00;99.90;;;;;;4989408;28;19925;-32
2023/09/30 02:14:05;;;;;;;;;;;12.10;99.90;;;;;;4995177;28;20437;-32
2023/09/30 02:16:32;;;;;;;;;;;12.00;99.90;;;;;;4995689;28;20041;-32
2023/09/30 02:18:59;;;;;;;;;;;12.00;99.90;;;;;;5012462;28;19926;-32
2023/09/30 02:21:26;;;;;;;;;;;12.00;99.90;;;;;;4994132;28;20373;-32
2023/09/30 02:23:54;;;;;;;;;;;12.00;99.90;;;;;;5012517;28;19925;-31
2023/09/30 02:26:21;;;;;;;;;;;12.00;99.90;;;;;;5011926;28;19925;-32
2023/09/30 02:28:48;;;;;;;;;;;12.00;99.90;;;;;;4995596;28;19937;-32
2023/09/30 02:31:17;;;;;;;;;;;12.00;99.90;;;;;;5012402;28;19979;-31
2023/09/30 02:33:44;;;;;;;;;;;12.00;99.90;;;;;;4982921;28;20396;-32
2023/09/30 02:36:12;;;;;;;;;;;12.00;99.90;;;;;;5007117;28;19925;-32
2023/09/30 02:38:38;;;;;;;;;;;12.00;99.90;;;;;;5011875;28;20328;-32
2023/09/30 02:41:05;;;;;;;;;;;12.00;99.90;;;;;;5013055;28;20348;-32
2023/09/30 02:43:32;;;;;;;;;;;12.00;99.90;;;;;;5012712;28;19980;-32
2023/09/30 02:45:59;;;;;;;;;;;12.00;99.90;;;;;;5011894;28;20432;-31
2023/09/30 02:48:27;;;;;;;;;;;12.00;99.90;;;;;;4994832;28;20344;-31
2023/09/30 02:50:54;;;;;;;;;;;12.00;99.90;;;;;;5012068;28;20282;-32
2023/09/30 02:53:22;;;;;;;;;;;12.00;99.90;;;;;;5012473;28;19926;-31
2023/09/30 02:55:49;;;;;;;;;;;12.00;99.90;;;;;;5011551;28;19926;-32
2023/09/30 02:58:18;;;;;;;;;;;12.00;99.90;;;;;;5010932;28;19931;-31
2023/09/30 03:00:49;;;;;;;;;;;12.00;99.90;;;;;;4993548;28;20000;-31
2023/09/30 03:03:15;;;;;;;;;;;12.00;99.90;;;;;;4994101;28;19929;-31
2023/09/30 03:05:45;;;;;;;;;;;12.00;99.90;;;;;;5012156;28;19925;-32
2023/09/30 03:08:12;;;;;;;;;;;12.00;99.90;;;;;;5010961;28;19932;-31
2023/09/30 03:10:40;;;;;;;;;;;12.00;99.90;;;;;;5011970;28;19936;-31
2023/09/30 03:13:08;;;;;;;;;;;12.00;99.90;;;;;;5012730;28;19933;-32
2023/09/30 03:15:35;;;;;;;;;;;12.00;99.90;;;;;;5011636;28;19929;-31
2023/09/30 03:18:03;;;;;;;;;;;12.00;99.90;;;;;;5011787;28;20278;-32
2023/09/30 03:20:30;;;;;;;;;;;12.00;99.90;;;;;;4980232;28;19972;-31
2023/09/30 03:22:59;;;;;;;;;;;11.90;99.90;;;;;;5015866;28;19925;-32
2023/09/30 03:25:26;;;;;;;;;;;11.90;99.90;;;;;;5010389;28;19925;-31
2023/09/30 03:27:52;;;;;;;;;;;11.90;99.90;;;;;;5015296;28;19932;-31
2023/09/30 03:30:20;;;;;;;;;;;11.90;99.90;;;;;;5015665;28;20057;-31
2023/09/30 03:32:50;;;;;;;;;;;11.90;99.90;;;;;;4997751;28;19931;-32
2023/09/30 03:35:17;;;;;;;;;;;11.90;99.90;;;;;;4984401;28;19926;-31
2023/09/30 03:37:44;;;;;;;;;;;11.90;99.90;;;;;;5015963;28;19932;-31
2023/09/30 03:40:14;;;;;;;;;;;11.90;99.90;;;;;;4993169;28;19973;-31
2023/09/30 03:42:42;;;;;;;;;;;11.90;99.90;;;;;;4989150;28;19925;-31
2023/09/30 03:45:09;;;;;;;;;;;11.90;99.90;;;;;;5014900;28;19925;-32
2023/09/30 03:47:36;;;;;;;;;;;11.90;99.90;;;;;;4982294;28;19930;-30
2023/09/30 03:50:03;;;;;;;;;;;11.90;99.90;;;;;;5008068;28;19980;-31
2023/09/30 03:52:32;;;;;;;;;;;11.90;99.90;;;;;;5010382;28;19948;-32
2023/09/30 03:54:59;;;;;;;;;;;11.90;99.90;;;;;;5007595;28;20867;-31
2023/09/30 03:57:27;;;;;;;;;;;11.90;99.90;;;;;;4994843;28;20008;-31
2023/09/30 03:59:54;;;;;;;;;;;11.90;99.90;;;;;;5012301;28;20377;-31
2023/09/30 04:02:21;;;;;;;;;;;11.90;99.90;;;;;;4985065;28;20378;-31
2023/09/30 04:04:49;;;;;;;;;;;11.90;99.90;;;;;;5004507;28;19929;-31
2023/09/30 04:07:16;;;;;;;;;;;11.90;99.90;;;;;;4997755;28;19932;-31
2023/09/30 04:09:43;;;;;;;;;;;11.90;99.90;;;;;;5015757;28;19931;-31
2023/09/30 04:12:10;;;;;;;;;;;11.90;99.90;;;;;;4979595;28;19926;-32
2023/09/30 04:14:39;;;;;;;;;;;11.90;99.90;;;;;;5015686;28;19971;-31
2023/09/30 04:17:05;;;;;;;;;;;11.90;99.90;;;;;;5014906;28;19925;-31
2023/09/30 04:19:33;;;;;;;;;;;11.90;99.90;;;;;;5014908;28;20000;-31
2023/09/30 04:22:00;;;;;;;;;;;11.90;99.90;;;;;;4997500;28;19933;-32
2023/09/30 04:24:28;;;;;;;;;;;11.90;99.90;;;;;;5009600;28;20299;-33
2023/09/30 04:26:57;;;;;;;;;;;11.90;99.90;;;;;;5014634;28;19971;-32
2023/09/30 04:29:24;;;;;;;;;;;11.90;99.90;;;;;;5013729;28;19929;-32
2023/09/30 04:31:52;;;;;;;;;;;11.90;99.90;;;;;;4996113;28;19929;-31
2023/09/30 04:34:19;;;;;;;;;;;11.90;99.90;;;;;;5014182;28;19952;-31
2023/09/30 04:36:45;;;;;;;;;;;11.90;99.90;;;;;;5015125;28;19925;-32
2023/09/30 04:39:14;;;;;;;;;;;11.90;99.90;;;;;;4986125;28;20266;-31
2023/09/30 04:41:42;;;;;;;;;;;11.90;99.90;;;;;;4996979;28;19925;-32
2023/09/30 04:44:09;;;;;;;;;;;11.90;99.90;;;;;;5013537;28;20003;-31
2023/09/30 04:46:40;;;;;;;;;;;11.90;99.90;;;;;;5014422;28;20476;-31
2023/09/30 04:49:08;;;;;;;;;;;11.90;99.90;;;;;;5015019;28;19926;-31
2023/09/30 04:51:35;;;;;;;;;;;11.90;99.90;;;;;;4979345;28;19984;-31
2023/09/30 04:54:03;;;;;;;;;;;11.90;99.90;;;;;;5007262;28;20310;-31
2023/09/30 04:56:30;;;;;;;;;;;11.90;99.90;;;;;;5013897;28;19960;-31
2023/09/30 04:58:58;;;;;;;;;;;11.90;99.90;;;;;;5012987;28;19930;-30
2023/09/30 05:01:25;;;;;;;;;;;11.90;99.90;;;;;;5013263;28;19925;-32
2023/09/30 05:03:51;;;;;;;;;;;11.90;99.90;;;;;;5013701;28;20344;-32
2023/09/30 05:06:20;;;;;;;;;;;11.90;99.90;;;;;;5013848;28;20374;-31
2023/09/30 05:08:47;;;;;;;;;;;11.90;99.90;;;;;;4987153;28;19965;-31
2023/09/30 05:11:14;;;;;;;;;;;11.90;99.90;;;;;;4978076;28;20097;-30
2023/09/30 05:13:40;;;;;;;;;;;11.90;99.90;;;;;;4995315;28;19970;-31
2023/09/30 05:16:07;;;;;;;;;;;11.90;99.90;;;;;;4996066;28;19929;-31
2023/09/30 05:18:34;;;;;;;;;;;11.90;99.90;;;;;;5013059;28;19925;-31
2023/09/30 05:21:01;;;;;;;;;;;11.90;99.90;;;;;;4995362;28;19925;-32
2023/09/30 05:23:29;;;;;;;;;;;11.90;99.90;;;;;;4990980;28;20436;-32
2023/09/30 05:25:55;;;;;;;;;;;11.90;99.90;;;;;;4994803;28;19988;-32
2023/09/30 05:28:22;;;;;;;;;;;11.90;99.90;;;;;;4997001;28;19929;-31
2023/09/30 05:30:50;;;;;;;;;;;11.90;99.90;;;;;;4996968;28;20000;-31
2023/09/30 05:33:17;;;;;;;;;;;11.80;99.90;;;;;;5013433;28;19980;-31
2023/09/30 05:35:43;;;;;;;;;;;11.80;99.90;;;;;;5012539;28;20009;-30
2023/09/30 05:38:12;;;;;;;;;;;11.80;99.90;;;;;;4989026;28;19926;-30
2023/09/30 05:40:41;;;;;;;;;;;11.80;99.90;;;;;;4994094;28;20356;-30
2023/09/30 05:43:08;;;;;;;;;;;11.80;99.90;;;;;;4999641;28;19929;-31
2023/09/30 05:45:35;;;;;;;;;;;11.80;99.90;;;;;;4995945;28;19925;-32
2023/09/30 05:48:04;;;;;;;;;;;11.70;99.90;;;;;;5013775;28;19972;-32
2023/09/30 05:50:31;;;;;;;;;;;11.70;99.90;;;;;;4993976;28;19925;-31
2023/09/30 05:52:58;;;;;;;;;;;11.80;99.90;;;;;;5013087;28;19926;-32
2023/09/30 05:55:25;;;;;;;;;;;11.70;99.90;;;;;;4988397;28;19929;-31
2023/09/30 05:57:53;;;;;;;;;;;11.70;99.90;;;;;;4995364;28;20500;-32
2023/09/30 06:00:23;;;;;;;;;;;11.70;99.90;;;;;;5013705;28;19933;-31
2023/09/30 06:02:51;;;;;;;;;;;11.70;99.90;;;;;;5011559;28;19934;-31
2023/09/30 06:05:18;;;;;;;;;;;11.60;99.90;;;;;;5011121;28;19925;-31
2023/09/30 06:07:45;;;;;;;;;;;11.60;99.90;;;;;;4992065;28;19926;-31
2023/09/30 06:10:12;;;;;;;;;;;11.60;99.90;;;;;;5012598;28;20023;-32
2023/09/30 06:12:40;;;;;;;;;;;11.60;99.90;;;;;;5013189;28;20432;-31
2023/09/30 06:15:08;;;;;;;;;;;11.60;99.90;;;;;;5006717;28;20375;-31
2023/09/30 06:17:35;;;;;;;;;;;11.60;99.90;;;;;;5012255;28;19979;-32
2023/09/30 06:20:08;;;;;;;;;;;11.60;99.90;;;;;;4994651;28;19926;-31
2023/09/30 06:22:35;;;;;;;;;;;11.60;99.90;;;;;;5009921;28;19972;-31
2023/09/30 06:25:02;;;;;;;;;;;11.60;99.90;;;;;;4993928;28;19934;-31
2023/09/30 06:27:28;;;;;;;;;;;11.70;99.90;;;;;;4995069;28;19925;-31
2023/09/30 06:29:55;;;;;;;;;;;11.70;99.90;;;;;;5011732;28;19980;-31
2023/09/30 06:32:23;;;;;;;;;;;11.70;99.90;;;;;;4993410;28;19976;-31
2023/09/30 06:34:50;;;;;;;;;;;11.70;99.90;;;;;;5011452;28;19983;-31
2023/09/30 06:37:18;;;;;;;;;;;11.70;99.90;;;;;;4997098;28;19926;-32
2023/09/30 06:39:45;;;;;;;;;;;11.70;99.90;;;;;;4994441;28;20017;-31
2023/09/30 06:42:11;;;;;;;;;;;11.70;99.90;;;;;;4980846;28;20705;-32
2023/09/30 06:44:38;;;;;;;;;;;11.80;99.90;;;;;;5011677;28;19991;-31
2023/09/30 06:47:05;;;;;;;;;;;11.80;99.90;;;;;;4994027;28;19996;-31
2023/09/30 06:49:35;;;;;;;;;;;11.90;99.90;;;;;;4991017;28;19930;-31
2023/09/30 06:52:03;;;;;;;;;;;11.90;99.90;;;;;;5002479;28;20412;-31
2023/09/30 06:54:29;;;;;;;;;;;11.90;99.90;;;;;;4989323;28;20000;-31
2023/09/30 06:56:56;;;;;;;;;;;12.00;99.90;;;;;;5009434;28;20674;-31
2023/09/30 06:59:24;;;;;;;;;;;12.00;99.90;;;;;;5010902;28;19925;-32
2023/09/30 07:01:51;;;;;;;;;;;12.10;99.90;;;;;;5011578;28;19925;-31
2023/09/30 07:04:18;;;;;;;;;;;12.10;99.90;;;;;;5012089;28;20286;-31
2023/09/30 07:06:46;;;;;;;;;;;12.20;99.90;;;;;;4993986;28;20337;-33
2023/09/30 07:09:12;;;;;;;;;;;12.20;99.90;;;;;;4994807;28;20385;-31
2023/09/30 07:11:39;;;;;;;;;;;12.30;99.90;;;;;;5004202;28;19931;-31
2023/09/30 07:14:06;;;;;;;;;;;12.40;99.90;;;;;;5011756;28;20380;-31
2023/09/30 07:16:33;;;;;;;;;;;12.50;99.90;;;;;;5010843;28;20356;-31
2023/09/30 07:18:59;;;;;;;;;;;12.50;99.90;;;;;;4994887;28;19933;-31
2023/09/30 07:21:26;;;;;;;;;;;12.70;99.90;;;;;;4993271;28;19973;-31
2023/09/30 07:23:54;;;;;;;;;;;12.70;99.90;;;;;;4995226;28;19930;-32
2023/09/30 07:26:24;;;;;;;;;;;12.80;99.90;;;;;;4982093;28;19984;-31
2023/09/30 07:28:50;;;;;;;;;;;12.90;99.90;;;;;;4977423;28;20017;-31
2023/09/30 07:31:17;;;;;;;;;;;13.00;99.90;;;;;;5006737;28;19980;-31
2023/09/30 07:33:44;;;;;;;;;;;13.10;99.90;;;;;;4975137;28;19985;-32
2023/09/30 07:36:10;;;;;;;;;;;13.10;99.90;;;;;;4987845;28;19929;-32
2023/09/30 07:38:37;;;;;;;;;;;13.30;99.90;;;;;;4983243;28;19969;-30
2023/09/30 07:41:05;;;;;;;;;;;13.40;99.90;;;;;;4992721;28;19981;-30
2023/09/30 07:43:31;;;;;;;;;;;13.50;99.90;;;;;;5007574;28;19973;-31
2023/09/30 07:45:59;;;;;;;;;;;13.60;99.90;;;;;;5010249;28;19976;-30
2023/09/30 07:48:26;;;;;;;;;;;13.70;99.90;;;;;;5010436;28;19926;-31
2023/09/30 07:50:52;;;;;;;;;;;13.80;99.90;;;;;;4992730;28;19995;-31
2023/09/30 07:53:19;;;;;;;;;;;13.90;99.90;;;;;;5004106;28;19930;-30
2023/09/30 07:55:46;;;;;;;;;;;14.00;99.90;;;;;;5000854;28;19930;-33
2023/09/30 07:58:14;;;;;;;;;;;14.10;99.90;;;;;;4986422;28;19976;-31
2023/09/30 08:00:41;;;;;;;;;;;14.20;99.90;;;;;;4980780;28;19972;-31
2023/09/30 08:03:07;;;;;;;;;;;14.30;99.90;;;;;;4979877;28;19929;-31
2023/09/30 08:05:34;;;;;;;;;;;14.40;99.90;;;;;;4982202;28;19973;-32
2023/09/30 08:08:02;;;;;;;;;;;14.50;99.90;;;;;;4976775;28;19930;-30
2023/09/30 08:10:29;;;;;;;;;;;14.70;99.90;;;;;;4970961;28;20382;-31
2023/09/30 08:12:57;;;;;;;;;;;14.80;99.90;;;;;;4986479;28;19994;-31
2023/09/30 08:15:25;;;;;;;;;;;14.90;99.90;;;;;;4995593;28;20020;-31
2023/09/30 08:17:52;;;;;;;;;;;15.00;99.90;;;;;;4978206;28;19926;-32
2023/09/30 08:20:19;;;;;;;;;;;15.10;99.90;;;;;;5014105;28;20434;-31
2023/09/30 08:22:45;;;;;;;;;;;15.20;99.90;;;;;;4997724;28;19992;-31
2023/09/30 08:25:12;;;;;;;;;;;15.30;99.90;;;;;;4997515;28;20396;-31
2023/09/30 08:27:39;;;;;;;;;;;15.40;99.90;;;;;;4997993;28;20403;-31
2023/09/30 08:30:06;;;;;;;;;;;15.50;99.90;;;;;;4996889;28;19925;-31
2023/09/30 08:32:35;;;;;;;;;;;15.60;99.90;;;;;;4980247;28;19997;-31
2023/09/30 08:35:02;;;;;;;;;;;15.70;99.90;;;;;;5011842;28;19926;-31
2023/09/30 08:37:29;;;;;;;;;;;15.80;99.90;;;;;;4996152;28;20397;-31
2023/09/30 08:39:56;;;;;;;;;;;15.90;99.90;;;;;;4995872;28;19984;-31
2023/09/30 08:42:24;;;;;;;;;;;16.00;99.90;;;;;;4994767;28;19972;-32
2023/09/30 08:44:51;;;;;;;;;;;16.10;99.90;;;;;;4997004;28;19933;-31
2023/09/30 08:47:17;;;;;;;;;;;16.20;99.90;;;;;;4997438;28;20374;-32
2023/09/30 08:49:45;;;;;;;;;;;16.30;99.90;;;;;;5013917;28;20381;-31
2023/09/30 08:52:12;;;;;;;;;;;16.50;99.90;;;;;;4995882;28;20097;-31
2023/09/30 08:54:39;;;;;;;;;;;16.60;99.90;;;;;;5012808;28;19983;-32
2023/09/30 08:57:05;;;;;;;;;;;16.70;99.90;;;;;;4996527;28;19932;-31
2023/09/30 08:59:32;;;;;;;;;;;16.70;99.90;;;;;;5013490;28;19929;-31
2023/09/30 09:02:00;;;;;;;;;;;16.80;99.90;;;;;;5012632;28;20405;-31
2023/09/30 09:04:26;;;;;;;;;;;17.00;99.90;;;;;;5011631;28;20290;-31
2023/09/30 09:06:55;;;;;;;;;;;17.10;99.90;;;;;;5013993;28;20305;-31
2023/09/30 09:09:22;;;;;;;;;;;17.20;99.90;;;;;;4997132;28;19933;-31
2023/09/30 09:11:48;;;;;;;;;;;17.30;99.90;;;;;;4997001;28;20281;-31
2023/09/30 09:14:15;;;;;;;;;;;17.40;99.90;;;;;;4981976;28;19964;-31
2023/09/30 09:16:57;;;;;;;;;;;17.50;99.90;;;;;;4993634;28;19926;-31
2023/09/30 09:19:23;;;;;;;;;;;17.50;99.90;;;;;;4993966;28;19929;-31
2023/09/30 09:21:59;;;;;;;;;;;17.60;99.90;;;;;;4990935;28;19956;-31
2023/09/30 09:24:30;;;;;;;;;;;17.70;99.90;;;;;;4991157;28;19926;-31
2023/09/30 09:27:04;;;;;;;;;;;17.80;99.90;;;;;;4977093;28;19925;-31
2023/09/30 09:29:31;;;;;;;;;;;17.90;99.90;;;;;;4994488;28;20162;-31
2023/09/30 09:32:07;;;;;;;;;;;18.00;99.90;;;;;;4998728;28;19933;-31
2023/09/30 09:34:33;;;;;;;;;;;18.00;99.90;;;;;;4996990;28;19925;-31
2023/09/30 09:37:01;;;;;;;;;;;18.10;99.90;;;;;;5013177;28;20016;-31
2023/09/30 09:39:29;;;;;;;;;;;18.20;99.90;;;;;;4996548;28;19925;-31
2023/09/30 09:41:57;;;;;;;;;;;18.30;99.90;;;;;;4984826;28;19967;-31
2023/09/30 09:44:25;;;;;;;;;;;18.30;99.90;;;;;;4993159;28;19926;-31
2023/09/30 09:46:51;;;;;;;;;;;18.30;99.90;;;;;;5014004;28;19929;-31
2023/09/30 09:49:18;;;;;;;;;;;18.40;99.90;;;;;;4996479;28;20015;-31
2023/09/30 09:51:45;;;;;;;;;;;18.50;99.90;;;;;;5011507;28;20057;-31
2023/09/30 09:54:13;;;;;;;;;;;18.60;99.90;;;;;;5013675;28;19933;-31
2023/09/30 09:56:39;;;;;;;;;;;18.60;99.90;;;;;;4991779;28;19925;-31
2023/09/30 09:59:06;;;;;;;;;;;18.70;99.90;;;;;;5011725;28;19960;-31
2023/09/30 10:01:34;;;;;;;;;;;18.70;99.90;;;;;;4994430;28;20018;-31
2023/09/30 10:04:01;;;;;;;;;;;18.80;99.90;;;;;;4995736;28;19925;-32
2023/09/30 10:06:27;;;;;;;;;;;18.80;99.90;;;;;;4989302;28;19979;-31
2023/09/30 10:08:54;;;;;;;;;;;18.80;99.90;;;;;;4998084;28;20333;-31
2023/09/30 10:11:22;;;;;;;;;;;18.90;99.90;;;;;;4989418;28;20369;-31
2023/09/30 10:13:49;;;;;;;;;;;19.00;99.90;;;;;;5012711;28;20123;-31
2023/09/30 10:16:31;;;;;;;;;;;19.10;99.90;;;;;;5012216;28;19960;-32
2023/09/30 10:19:10;;;;;;;;;;;19.10;99.90;;;;;;5012326;28;20325;-31
2023/09/30 10:21:36;;;;;;;;;;;19.10;99.90;;;;;;5012384;28;19972;-31
2023/09/30 10:24:18;;;;;;;;;;;19.20;99.90;;;;;;5011722;28;20359;-31
2023/09/30 10:26:46;;;;;;;;;;;19.10;99.90;;;;;;5013106;28;19929;-31
2023/09/30 10:29:13;;;;;;;;;;;19.20;99.90;;;;;;5007794;28;19933;-32
2023/09/30 10:31:50;;;;;;;;;;;19.20;99.90;;;;;;5008696;28;19932;-32
2023/09/30 10:34:23;;;;;;;;;;;19.40;99.90;;;;;;5004842;28;20291;-32
2023/09/30 10:36:51;;;;;;;;;;;19.40;99.90;;;;;;4990662;28;19933;-32
2023/09/30 10:39:38;;;;;;;;;;;19.50;99.90;;;;;;4991485;28;19930;-32
2023/09/30 10:42:06;;;;;;;;;;;19.60;99.90;;;;;;4990353;28;19925;-31
2023/09/30 10:44:33;;;;;;;;;;;19.60;99.90;;;;;;5009874;28;19972;-32
2023/09/30 10:47:00;;;;;;;;;;;19.60;99.90;;;;;;4992154;28;19936;-32
2023/09/30 10:49:31;;;;;;;;;;;19.70;99.90;;;;;;5010669;28;20441;-31
2023/09/30 10:51:59;;;;;;;;;;;19.80;99.90;;;;;;5010295;28;19925;-31
2023/09/30 10:54:26;;;;;;;;;;;19.90;99.90;;;;;;4990158;28;19971;-32
2023/09/30 10:56:53;;;;;;;;;;;20.00;99.90;;;;;;4990586;28;20308;-33
2023/09/30 10:59:22;;;;;;;;;;;20.10;99.90;;;;;;5011701;28;20110;-32
2023/09/30 11:01:49;;;;;;;;;;;20.10;99.90;;;;;;4993632;28;19932;-32
2023/09/30 11:04:17;;;;;;;;;;;20.00;99.90;;;;;;5011868;28;20349;-33
2023/09/30 11:06:43;;;;;;;;;;;19.90;99.90;;;;;;4993299;28;19933;-33
2023/09/30 11:09:16;;;;;;;;;;;19.90;99.90;;;;;;4988002;28;19925;-32
2023/09/30 11:11:48;;;;;;;;;;;19.90;99.90;;;;;;5011341;28;19980;-32
2023/09/30 11:14:18;;;;;;;;;;;19.80;99.90;;;;;;5010251;28;20385;-32
2023/09/30 11:16:46;;;;;;;;;;;19.70;99.90;;;;;;5011612;28;20447;-32
2023/09/30 11:19:12;;;;;;;;;;;19.70;99.90;;;;;;4992219;28;20308;-33
2023/09/30 11:21:39;;;;;;;;;;;19.70;99.90;;;;;;5012435;28;20266;-32
2023/09/30 11:24:07;;;;;;;;;;;19.90;99.90;;;;;;5011864;28;20354;-34
2023/09/30 11:26:33;;;;;;;;;;;20.00;99.90;;;;;;5011755;28;20332;-32
2023/09/30 11:29:05;;;;;;;;;;;20.10;99.90;;;;;;5002149;28;19936;-33
2023/09/30 11:31:33;;;;;;;;;;;20.20;99.90;;;;;;4993130;28;19933;-32
2023/09/30 11:34:03;;;;;;;;;;;20.40;99.90;;;;;;4994259;28;20008;-32
2023/09/30 11:36:30;;;;;;;;;;;20.50;99.90;;;;;;5011710;28;19972;-32
2023/09/30 11:38:57;;;;;;;;;;;20.50;99.90;;;;;;5009524;28;19972;-32
2023/09/30 11:41:25;;;;;;;;;;;20.50;99.90;;;;;;4993905;28;19937;-32
2023/09/30 11:44:01;;;;;;;;;;;20.60;99.90;;;;;;5014053;28;19926;-32
2023/09/30 11:46:28;;;;;;;;;;;20.80;99.90;;;;;;5014933;28;19969;-33
2023/09/30 11:48:59;;;;;;;;;;;20.80;99.90;;;;;;5014122;28;20424;-32
2023/09/30 11:51:27;;;;;;;;;;;20.80;99.90;;;;;;4995210;28;20016;-32
2023/09/30 11:53:54;;;;;;;;;;;20.80;99.90;;;;;;4997478;28;20345;-32
2023/09/30 11:56:27;;;;;;;;;;;20.80;99.90;;;;;;4994513;28;19977;-32
2023/09/30 11:58:54;;;;;;;;;;;20.90;99.90;;;;;;4978555;28;20397;-32
2023/09/30 12:01:21;;;;;;;;;;;21.10;99.90;;;;;;5010119;28;20473;-32
2023/09/30 12:03:48;;;;;;;;;;;21.20;99.90;;;;;;4997207;28;19925;-32
2023/09/30 12:06:16;;;;;;;;;;;21.30;99.90;;;;;;4995708;28;19929;-32
2023/09/30 12:08:45;;;;;;;;;;;21.50;99.90;;;;;;4996681;28;19933;-32
2023/09/30 12:11:12;;;;;;;;;;;21.50;99.90;;;;;;5014232;28;20348;-32
2023/09/30 12:13:39;;;;;;;;;;;21.50;99.90;;;;;;4996655;28;19933;-33
2023/09/30 12:16:06;;;;;;;;;;;21.60;99.90;;;;;;4994200;28;19933;-33
2023/09/30 12:18:33;;;;;;;;;;;21.60;99.90;;;;;;4993626;28;19929;-32
2023/09/30 12:21:00;;;;;;;;;;;21.70;99.90;;;;;;4996252;28;19933;-33
2023/09/30 12:23:26;;;;;;;;;;;21.70;99.90;;;;;;4996520;28;19926;-32
2023/09/30 12:25:54;;;;;;;;;;;21.80;99.90;;;;;;4996639;28;19925;-32
2023/09/30 12:28:21;;;;;;;;;;;21.80;99.90;;;;;;4995417;28;19925;-32
2023/09/30 12:30:48;;;;;;;;;;;21.90;99.90;;;;;;4995188;28;19925;-32
2023/09/30 12:33:14;;;;;;;;;;;21.80;99.90;;;;;;5014964;28;19926;-32
2023/09/30 12:35:41;;;;;;;;;;;21.80;99.90;;;;;;4995916;28;19941;-32
2023/09/30 12:38:08;;;;;;;;;;;21.90;99.90;;;;;;4978116;28;19926;-33
2023/09/30 12:40:34;;;;;;;;;;;21.90;99.90;;;;;;4989271;28;19937;-31
2023/09/30 12:43:03;;;;;;;;;;;21.90;99.90;;;;;;5002499;28;20571;-33
2023/09/30 12:45:30;;;;;;;;;;;21.90;99.90;;;;;;4977772;28;19925;-32
2023/09/30 12:47:56;;;;;;;;;;;21.90;99.90;;;;;;4995211;28;19980;-32
2023/09/30 12:50:23;;;;;;;;;;;21.90;99.90;;;;;;5014156;28;19933;-33
2023/09/30 12:52:50;;;;;;;;;;;21.90;99.90;;;;;;5014010;28;19925;-32
2023/09/30 12:55:16;;;;;;;;;;;21.80;99.90;;;;;;4995450;28;20378;-34
2023/09/30 12:57:43;;;;;;;;;;;21.80;99.90;;;;;;4995271;28;19937;-33
2023/09/30 13:00:12;;;;;;;;;;;21.80;99.90;;;;;;5013963;28;19932;-32
2023/09/30 13:02:39;;;;;;;;;;;21.80;99.90;;;;;;4995451;28;19933;-32
2023/09/30 13:05:06;;;;;;;;;;;21.80;99.90;;;;;;4995435;28;19925;-34
2023/09/30 13:07:33;;;;;;;;;;;21.80;99.90;;;;;;5003411;28;20232;-34
2023/09/30 13:10:01;;;;;;;;;;;21.90;99.90;;;;;;4994484;28;20029;-34
2023/09/30 13:12:27;;;;;;;;;;;21.90;99.90;;;;;;4998504;28;20016;-33
2023/09/30 13:14:56;;;;;;;;;;;22.00;99.90;;;;;;4992476;28;19975;-33
2023/09/30 13:17:24;;;;;;;;;;;22.00;99.90;;;;;;4993666;28;20340;-32
2023/09/30 13:19:51;;;;;;;;;;;22.10;99.90;;;;;;5011906;28;20274;-35
2023/09/30 13:22:17;;;;;;;;;;;22.20;99.90;;;;;;4994711;28;20370;-33
2023/09/30 13:24:44;;;;;;;;;;;22.20;99.90;;;;;;4985451;28;20420;-32
2023/09/30 13:27:11;;;;;;;;;;;22.20;99.90;;;;;;4994947;28;19929;-33
2023/09/30 13:29:38;;;;;;;;;;;22.20;99.90;;;;;;5009923;28;19979;-33
2023/09/30 13:32:05;;;;;;;;;;;22.10;99.90;;;;;;4999109;28;19926;-32
2023/09/30 13:34:33;;;;;;;;;;;22.10;99.90;;;;;;4993262;28;20275;-33
2023/09/30 13:36:59;;;;;;;;;;;22.10;99.90;;;;;;4993511;28;19980;-33
2023/09/30 13:39:27;;;;;;;;;;;22.10;99.90;;;;;;4994160;28;19968;-32
2023/09/30 13:41:54;;;;;;;;;;;22.10;99.90;;;;;;5012031;28;20305;-32
2023/09/30 13:44:20;;;;;;;;;;;22.00;99.90;;;;;;5010933;28;19976;-32
2023/09/30 13:46:47;;;;;;;;;;;21.90;99.90;;;;;;4995578;28;19925;-33
2023/09/30 13:49:14;;;;;;;;;;;21.90;99.90;;;;;;4992860;28;20365;-33
2023/09/30 13:51:42;;;;;;;;;;;21.80;99.90;;;;;;5012141;28;20410;-36
2023/09/30 13:54:09;;;;;;;;;;;21.90;99.90;;;;;;4994609;28;19988;-33
2023/09/30 13:56:35;;;;;;;;;;;22.00;99.90;;;;;;4993822;28;19996;-32
2023/09/30 13:59:02;;;;;;;;;;;22.20;99.90;;;;;;5012709;28;19925;-32
2023/09/30 14:01:29;;;;;;;;;;;22.20;99.90;;;;;;4995551;28;19976;-33
2023/09/30 14:03:57;;;;;;;;;;;22.20;99.90;;;;;;4987450;28;19926;-32
2023/09/30 14:06:23;;;;;;;;;;;22.20;99.90;;;;;;5011042;28;19926;-33
2023/09/30 14:08:52;;;;;;;;;;;22.10;99.90;;;;;;4982098;28;19933;-33
2023/09/30 14:11:19;;;;;;;;;;;22.20;99.90;;;;;;5012267;28;19977;-33
2023/09/30 14:13:46;;;;;;;;;;;22.10;99.90;;;;;;4988344;28;19929;-33
2023/09/30 14:16:12;;;;;;;;;;;22.10;99.90;;;;;;4991970;28;19929;-33
2023/09/30 14:18:39;;;;;;;;;;;22.00;99.90;;;;;;5011737;28;19980;-33